createdAt,value
2022-08-22T00:00:23.915Z,15.00
2022-08-22T00:02:47.979Z,19.70
2022-08-22T00:02:58.607Z,15.40
2022-08-22T00:03:01.919Z,18.50
2022-08-22T00:03:08.205Z,15.50
2022-08-22T00:03:25.076Z,14.90
2022-08-22T00:06:06.162Z,14.90
2022-08-22T00:08:43.144Z,14.90
2022-08-22T00:11:27.987Z,14.70
2022-08-22T00:14:02.158Z,14.70
2022-08-22T00:16:35.389Z,14.60
2022-08-22T00:19:13.175Z,14.50
2022-08-22T00:21:50.763Z,14.50
2022-08-22T00:24:24.468Z,14.40
2022-08-22T00:27:00.247Z,14.40
2022-08-22T00:29:34.428Z,14.30
2022-08-22T00:32:11.792Z,14.30
2022-08-22T00:34:47.010Z,14.30
2022-08-22T00:37:24.440Z,14.30
2022-08-22T00:39:59.482Z,14.40
2022-08-22T00:42:47.907Z,14.60
2022-08-22T00:45:39.264Z,14.60
2022-08-22T00:48:21.973Z,14.60
2022-08-22T00:51:06.333Z,14.60
2022-08-22T00:53:51.306Z,14.70
2022-08-22T00:56:52.492Z,14.80
2022-08-22T00:59:43.911Z,14.90
2022-08-22T01:02:29.646Z,14.90
2022-08-22T01:05:18.661Z,14.80
2022-08-22T01:08:03.119Z,14.80
2022-08-22T01:10:50.425Z,14.80
2022-08-22T01:13:35.744Z,14.80
2022-08-22T01:16:17.996Z,14.70
2022-08-22T01:19:33.665Z,14.60
2022-08-22T01:22:26.046Z,14.60
2022-08-22T01:25:40.771Z,14.50
2022-08-22T01:28:38.654Z,14.40
2022-08-22T01:31:44.393Z,14.20
2022-08-22T01:34:42.797Z,14.10
2022-08-22T01:37:48.436Z,14.20
2022-08-22T01:40:53.702Z,14.20
2022-08-22T01:43:59.994Z,14.30
2022-08-22T01:46:44.358Z,14.10
2022-08-22T01:49:20.773Z,13.90
2022-08-22T01:51:54.741Z,13.90
2022-08-22T01:54:32.174Z,14.00
2022-08-22T01:57:03.706Z,14.10
2022-08-22T01:59:34.999Z,14.20
2022-08-22T02:02:45.709Z,14.30
2022-08-22T02:05:24.716Z,14.20
2022-08-22T02:08:00.166Z,14.20
2022-08-22T02:10:44.528Z,14.10
2022-08-22T02:13:30.271Z,14.20
2022-08-22T02:16:09.305Z,14.20
2022-08-22T02:18:51.430Z,14.20
2022-08-22T02:21:27.384Z,14.30
2022-08-22T02:24:02.797Z,14.30
2022-08-22T02:26:45.165Z,14.20
2022-08-22T02:29:16.665Z,14.10
2022-08-22T02:31:50.204Z,13.90
2022-08-22T02:34:26.077Z,13.80
2022-08-22T02:36:58.866Z,13.60
2022-08-22T02:39:33.978Z,13.40
2022-08-22T02:42:17.224Z,13.20
2022-08-22T02:44:53.851Z,13.10
2022-08-22T02:47:30.501Z,13.00
2022-08-22T02:50:05.831Z,12.90
2022-08-22T02:52:53.887Z,13.00
2022-08-22T02:55:36.250Z,13.00
2022-08-22T02:58:14.412Z,13.10
2022-08-22T03:00:47.226Z,13.10
2022-08-22T03:03:23.998Z,13.00
2022-08-22T03:06:02.062Z,13.00
2022-08-22T03:08:33.085Z,13.00
2022-08-22T03:11:19.072Z,12.90
2022-08-22T03:13:56.965Z,13.00
2022-08-22T03:16:34.547Z,13.10
2022-08-22T03:19:07.193Z,13.10
2022-08-22T03:21:46.635Z,13.20
2022-08-22T03:24:21.276Z,13.20
2022-08-22T03:26:57.656Z,13.30
2022-08-22T03:29:29.235Z,13.20
2022-08-22T03:32:11.423Z,13.10
2022-08-22T03:34:54.377Z,13.00
2022-08-22T03:37:28.092Z,12.90
2022-08-22T03:40:01.926Z,13.00
2022-08-22T03:43:08.505Z,13.00
2022-08-22T03:46:12.957Z,13.10
2022-08-22T03:49:13.413Z,13.10
2022-08-22T03:51:56.069Z,13.00
2022-08-22T03:55:05.223Z,13.00
2022-08-22T03:58:27.614Z,13.00
2022-08-22T04:01:32.436Z,12.90
2022-08-22T04:04:39.820Z,12.80
2022-08-22T04:07:38.269Z,12.70
2022-08-22T04:10:40.307Z,12.60
2022-08-22T04:13:36.966Z,12.80
2022-08-22T04:16:41.387Z,12.90
2022-08-22T04:19:42.208Z,13.00
2022-08-22T04:22:34.548Z,12.90
2022-08-22T04:25:08.248Z,12.80
2022-08-22T04:27:42.167Z,12.60
2022-08-22T04:30:20.788Z,12.50
2022-08-22T04:32:54.263Z,12.40
2022-08-22T04:35:32.245Z,12.30
2022-08-22T04:38:03.821Z,12.30
2022-08-22T04:40:37.166Z,12.30
2022-08-22T04:43:10.432Z,12.40
2022-08-22T04:45:47.586Z,12.40
2022-08-22T04:48:23.594Z,12.40
2022-08-22T04:50:56.008Z,12.40
2022-08-22T04:53:39.150Z,12.40
2022-08-22T04:56:16.550Z,12.60
2022-08-22T04:58:49.738Z,12.80
2022-08-22T05:01:22.337Z,13.00
2022-08-22T05:03:58.324Z,13.40
2022-08-22T05:06:29.800Z,13.80
2022-08-22T05:09:02.498Z,14.10
2022-08-22T05:11:32.234Z,14.30
2022-08-22T05:14:05.129Z,14.40
2022-08-22T05:16:39.335Z,14.60
2022-08-22T05:19:15.807Z,14.80
2022-08-22T05:21:47.940Z,15.10
2022-08-22T05:24:22.862Z,15.50
2022-08-22T05:26:58.659Z,15.90
2022-08-22T05:29:30.915Z,16.40
2022-08-22T05:32:04.423Z,16.70
2022-08-22T05:34:38.003Z,17.10
2022-08-22T05:37:13.189Z,17.20
2022-08-22T05:39:47.040Z,17.40
2022-08-22T05:42:23.230Z,17.70
2022-08-22T05:44:51.603Z,18.00
2022-08-22T05:47:24.402Z,18.20
2022-08-22T05:50:00.275Z,18.50
2022-08-22T05:52:43.516Z,18.90
2022-08-22T05:55:22.119Z,19.10
2022-08-22T05:57:54.784Z,19.30
2022-08-22T06:00:26.525Z,19.40
2022-08-22T06:03:08.255Z,19.60
2022-08-22T06:05:42.923Z,19.70
2022-08-22T06:08:19.717Z,20.00
2022-08-22T06:10:51.065Z,20.30
2022-08-22T06:13:24.732Z,20.50
2022-08-22T06:15:57.783Z,20.70
2022-08-22T06:18:29.054Z,21.20
2022-08-22T06:21:00.396Z,21.50
2022-08-22T06:23:30.723Z,21.70
2022-08-22T06:26:01.341Z,22.00
2022-08-22T06:28:55.126Z,22.40
2022-08-22T06:31:27.654Z,22.70
2022-08-22T06:34:01.100Z,23.00
2022-08-22T06:36:34.004Z,23.20
2022-08-22T06:39:10.877Z,23.40
2022-08-22T06:41:44.121Z,23.60
2022-08-22T06:44:14.954Z,23.70
2022-08-22T06:46:46.990Z,23.90
2022-08-22T06:49:17.093Z,24.20
2022-08-22T06:51:45.986Z,24.30
2022-08-22T06:54:18.864Z,24.50
2022-08-22T06:56:49.378Z,24.70
2022-08-22T06:59:19.626Z,24.80
2022-08-22T07:01:53.495Z,24.90
2022-08-22T07:04:26.653Z,25.00
2022-08-22T07:06:57.403Z,25.30
2022-08-22T07:09:28.520Z,25.40
2022-08-22T07:12:00.344Z,25.70
2022-08-22T07:14:32.118Z,26.00
2022-08-22T07:17:02.083Z,26.20
2022-08-22T07:19:36.903Z,26.10
2022-08-22T07:22:13.240Z,26.20
2022-08-22T07:24:47.924Z,26.40
2022-08-22T07:27:27.264Z,26.50
2022-08-22T07:30:02.957Z,26.60
2022-08-22T07:32:43.255Z,26.60
2022-08-22T07:35:16.375Z,26.90
2022-08-22T07:38:03.356Z,27.20
2022-08-22T07:40:39.817Z,27.30
2022-08-22T07:43:18.393Z,27.80
2022-08-22T07:45:50.771Z,27.90
2022-08-22T07:48:26.300Z,28.00
2022-08-22T07:51:09.344Z,28.00
2022-08-22T07:53:43.339Z,28.10
2022-08-22T07:56:16.855Z,28.00
2022-08-22T07:58:48.282Z,28.00
2022-08-22T08:01:20.314Z,27.80
2022-08-22T08:03:53.418Z,27.90
2022-08-22T08:06:24.725Z,28.20
2022-08-22T08:08:54.420Z,28.50
2022-08-22T08:11:24.962Z,28.70
2022-08-22T08:13:57.877Z,28.60
2022-08-22T08:16:28.751Z,28.60
2022-08-22T08:18:59.574Z,28.60
2022-08-22T08:21:32.212Z,28.80
2022-08-22T08:24:02.163Z,28.80
2022-08-22T08:26:34.398Z,29.10
2022-08-22T08:29:03.577Z,29.50
2022-08-22T08:31:35.561Z,29.50
2022-08-22T08:34:07.325Z,29.80
2022-08-22T08:36:51.185Z,30.20
2022-08-22T08:39:25.103Z,30.00
2022-08-22T08:42:19.055Z,29.80
2022-08-22T08:45:24.664Z,30.10
2022-08-22T08:48:20.974Z,30.30
2022-08-22T08:51:02.155Z,30.40
2022-08-22T08:53:52.875Z,30.50
2022-08-22T08:56:30.541Z,30.70
2022-08-22T09:02:13.813Z,30.20
2022-08-22T09:05:37.869Z,30.20
2022-08-22T09:08:35.523Z,30.10
2022-08-22T09:11:44.478Z,30.20
2022-08-22T09:14:26.243Z,30.60
2022-08-22T09:17:30.381Z,31.00
2022-08-22T09:20:27.379Z,31.50
2022-08-22T09:23:21.463Z,31.90
2022-08-22T09:25:55.932Z,31.90
2022-08-22T09:28:32.306Z,31.50
2022-08-22T09:31:47.404Z,31.40
2022-08-22T09:34:23.891Z,31.90
2022-08-22T09:37:13.974Z,32.20
2022-08-22T09:39:51.580Z,32.30
2022-08-22T09:42:24.058Z,32.40
2022-08-22T09:45:00.197Z,32.40
2022-08-22T09:47:35.264Z,32.50
2022-08-22T09:50:17.122Z,32.40
2022-08-22T09:52:57.981Z,31.90
2022-08-22T09:55:42.199Z,31.60
2022-08-22T09:58:19.151Z,31.50
2022-08-22T10:00:57.116Z,31.40
2022-08-22T10:03:53.622Z,31.70
2022-08-22T10:06:30.090Z,32.00
2022-08-22T10:09:04.800Z,32.40
2022-08-22T10:11:43.290Z,32.00
2022-08-22T10:14:22.373Z,30.90
2022-08-22T10:17:00.435Z,30.40
2022-08-22T10:19:35.706Z,29.70
2022-08-22T10:22:21.517Z,29.20
2022-08-22T10:24:58.775Z,29.10
2022-08-22T10:27:42.673Z,28.80
2022-08-22T10:30:13.421Z,29.30
2022-08-22T10:32:49.971Z,29.90
2022-08-22T10:35:26.591Z,30.40
2022-08-22T10:38:00.143Z,31.10
2022-08-22T10:40:33.151Z,31.30
2022-08-22T10:43:10.696Z,31.80
2022-08-22T10:45:43.507Z,32.60
2022-08-22T10:48:33.078Z,33.00
2022-08-22T10:51:20.870Z,32.40
2022-08-22T10:54:28.217Z,30.90
2022-08-22T10:57:06.882Z,30.20
2022-08-22T10:59:43.760Z,29.50
2022-08-22T11:02:28.330Z,29.00
2022-08-22T11:05:23.086Z,28.80
2022-08-22T11:08:01.878Z,29.40
2022-08-22T11:10:40.631Z,30.10
2022-08-22T11:13:16.428Z,30.20
2022-08-22T11:16:01.367Z,29.50
2022-08-22T11:19:01.845Z,28.70
2022-08-22T11:21:43.009Z,28.60
2022-08-22T11:24:35.461Z,29.20
2022-08-22T11:27:17.640Z,29.90
2022-08-22T11:29:58.622Z,30.50
2022-08-22T11:32:35.821Z,31.10
2022-08-22T11:35:09.032Z,31.30
2022-08-22T11:37:47.779Z,30.90
2022-08-22T11:40:38.559Z,30.90
2022-08-22T11:43:25.739Z,31.20
2022-08-22T11:45:59.781Z,31.40
2022-08-22T11:48:37.813Z,32.00
2022-08-22T11:51:14.850Z,32.10
2022-08-22T11:53:48.417Z,32.20
2022-08-22T11:56:24.695Z,32.20
2022-08-22T11:59:01.349Z,32.00
2022-08-22T12:01:37.368Z,32.00
2022-08-22T12:04:13.321Z,31.60
2022-08-22T12:06:51.414Z,31.60
2022-08-22T12:09:50.752Z,31.90
2022-08-22T12:12:28.858Z,32.00
2022-08-22T12:15:04.320Z,32.40
2022-08-22T12:18:15.313Z,32.60
2022-08-22T12:21:26.770Z,32.20
2022-08-22T12:24:19.367Z,31.70
2022-08-22T12:27:09.029Z,31.10
2022-08-22T12:29:45.472Z,30.70
2022-08-22T12:32:51.059Z,31.00
2022-08-22T12:35:35.509Z,30.50
2022-08-22T12:38:28.317Z,30.50
2022-08-22T12:41:27.843Z,30.50
2022-08-22T12:44:16.426Z,30.30
2022-08-22T12:47:00.067Z,29.90
2022-08-22T12:49:52.359Z,29.90
2022-08-22T12:52:33.085Z,30.40
2022-08-22T12:55:22.235Z,30.70
2022-08-22T12:58:03.508Z,30.70
2022-08-22T13:00:35.423Z,30.50
2022-08-22T13:03:09.570Z,30.20
2022-08-22T13:05:45.316Z,29.80
2022-08-22T13:08:30.160Z,29.40
2022-08-22T13:11:02.249Z,29.10
2022-08-22T13:13:37.290Z,29.00
2022-08-22T13:16:11.709Z,28.90
2022-08-22T13:18:46.588Z,29.50
2022-08-22T13:21:31.667Z,30.20
2022-08-22T13:24:10.645Z,31.00
2022-08-22T13:26:49.161Z,31.30
2022-08-22T13:29:39.142Z,31.70
2022-08-22T13:32:19.434Z,31.90
2022-08-22T13:34:55.111Z,31.90
2022-08-22T13:37:30.852Z,31.90
2022-08-22T13:40:03.589Z,32.00
2022-08-22T13:42:34.456Z,32.10
2022-08-22T13:45:15.643Z,32.20
2022-08-22T13:47:52.077Z,32.00
2022-08-22T13:50:24.493Z,31.90
2022-08-22T13:53:00.575Z,31.40
2022-08-22T13:55:34.075Z,31.20
2022-08-22T13:58:07.721Z,31.10
2022-08-22T14:01:05.391Z,31.00
2022-08-22T14:03:40.877Z,31.10
2022-08-22T14:06:37.680Z,31.40
2022-08-22T14:09:31.866Z,31.70
2022-08-22T14:12:12.625Z,31.90
2022-08-22T14:14:45.931Z,31.80
2022-08-22T14:17:19.390Z,31.70
2022-08-22T14:19:59.780Z,31.90
2022-08-22T14:22:35.458Z,32.30
2022-08-22T14:25:08.749Z,32.40
2022-08-22T14:27:40.038Z,32.40
2022-08-22T14:30:17.030Z,32.10
2022-08-22T14:32:51.387Z,32.20
2022-08-22T14:35:33.576Z,31.70
2022-08-22T14:38:20.510Z,31.20
2022-08-22T14:41:03.215Z,30.80
2022-08-22T14:43:49.257Z,30.80
2022-08-22T14:46:23.720Z,30.60
2022-08-22T14:49:20.755Z,30.80
2022-08-22T14:51:58.329Z,30.60
2022-08-22T14:54:29.721Z,30.50
2022-08-22T14:57:00.908Z,30.50
2022-08-22T14:59:38.046Z,30.60
2022-08-22T15:02:11.100Z,30.40
2022-08-22T15:04:41.883Z,30.50
2022-08-22T15:07:11.610Z,30.50
2022-08-22T15:09:44.210Z,30.60
2022-08-22T15:12:26.738Z,30.20
2022-08-22T15:14:57.353Z,30.20
2022-08-22T15:17:39.664Z,30.20
2022-08-22T15:20:28.505Z,29.90
2022-08-22T15:23:02.058Z,29.70
2022-08-22T15:25:34.205Z,29.60
2022-08-22T15:28:14.209Z,29.40
2022-08-22T15:30:44.875Z,29.20
2022-08-22T15:33:16.964Z,28.90
2022-08-22T15:35:47.950Z,28.70
2022-08-22T15:38:28.550Z,28.50
2022-08-22T15:40:57.678Z,28.40
2022-08-22T15:43:34.918Z,28.20
2022-08-22T15:46:18.248Z,28.10
2022-08-22T15:48:57.838Z,28.00
2022-08-22T15:51:37.093Z,28.00
2022-08-22T15:54:24.498Z,28.00
2022-08-22T15:57:14.179Z,27.90
2022-08-22T15:59:54.755Z,27.60
2022-08-22T16:02:35.331Z,27.50
2022-08-22T16:05:23.813Z,27.40
2022-08-22T16:08:04.050Z,27.40
2022-08-22T16:10:37.554Z,27.30
2022-08-22T16:13:16.605Z,27.30
2022-08-22T16:16:00.274Z,27.20
2022-08-22T16:19:05.652Z,27.10
2022-08-22T16:22:06.184Z,27.10
2022-08-22T16:24:50.470Z,27.10
2022-08-22T16:27:25.656Z,27.00
2022-08-22T16:30:04.866Z,27.00
2022-08-22T16:32:35.742Z,27.00
2022-08-22T16:35:03.623Z,27.00
2022-08-22T16:37:50.217Z,27.00
2022-08-22T16:40:25.942Z,26.90
2022-08-22T16:43:14.016Z,26.90
2022-08-22T16:45:45.432Z,26.90
2022-08-22T16:48:27.590Z,26.90
2022-08-22T16:51:14.711Z,26.90
2022-08-22T16:54:12.173Z,26.80
2022-08-22T16:57:07.672Z,26.70
2022-08-22T16:59:42.635Z,26.60
2022-08-22T17:02:37.398Z,26.40
2022-08-22T17:05:21.843Z,26.40
2022-08-22T17:08:10.814Z,26.30
2022-08-22T17:10:57.896Z,26.20
2022-08-22T17:13:40.393Z,26.20
2022-08-22T17:16:23.669Z,26.10
2022-08-22T17:19:05.257Z,26.00
2022-08-22T17:21:50.729Z,25.80
2022-08-22T17:24:33.843Z,25.70
2022-08-22T17:27:07.693Z,25.60
2022-08-22T17:29:45.216Z,25.50
2022-08-22T17:32:22.820Z,25.50
2022-08-22T17:34:59.369Z,25.50
2022-08-22T17:37:40.851Z,25.30
2022-08-22T17:40:23.079Z,25.20
2022-08-22T17:43:06.912Z,25.00
2022-08-22T17:45:47.324Z,24.80
2022-08-22T17:48:20.050Z,24.80
2022-08-22T17:50:53.183Z,24.70
2022-08-22T17:53:34.352Z,24.60
2022-08-22T17:56:12.713Z,24.50
2022-08-22T17:58:46.075Z,24.40
2022-08-22T18:01:16.736Z,24.30
2022-08-22T18:03:52.005Z,24.20
2022-08-22T18:06:23.484Z,24.20
2022-08-22T18:11:49.498Z,24.10
2022-08-22T18:14:26.566Z,24.00
2022-08-22T18:16:56.640Z,23.90
2022-08-22T18:19:41.192Z,23.80
2022-08-22T18:22:13.171Z,23.70
2022-08-22T18:24:49.519Z,23.60
2022-08-22T18:27:30.009Z,23.50
2022-08-22T18:30:15.005Z,23.30
2022-08-22T18:32:50.873Z,23.20
2022-08-22T18:35:24.332Z,23.30
2022-08-22T18:37:58.669Z,23.30
2022-08-22T18:40:34.446Z,23.30
2022-08-22T18:43:14.194Z,23.30
2022-08-22T18:46:26.161Z,23.30
2022-08-22T18:49:14.506Z,23.30
2022-08-22T18:51:42.390Z,23.20
2022-08-22T18:54:36.418Z,23.20
2022-08-22T18:57:24.294Z,23.10
2022-08-22T19:00:04.847Z,23.10
2022-08-22T19:02:57.719Z,22.90
2022-08-22T19:05:40.717Z,22.90
2022-08-22T19:08:53.735Z,22.80
2022-08-22T19:11:37.269Z,22.80
2022-08-22T19:14:24.923Z,22.70
2022-08-22T19:17:11.908Z,22.70
2022-08-22T19:20:11.818Z,22.60
2022-08-22T19:22:40.659Z,22.50
2022-08-22T19:25:14.768Z,22.40
2022-08-22T19:27:44.704Z,22.40
2022-08-22T19:30:44.894Z,22.30
2022-08-22T19:33:19.239Z,22.20
2022-08-22T19:36:10.835Z,22.20
2022-08-22T19:38:54.955Z,22.10
2022-08-22T19:41:50.722Z,22.10
2022-08-22T19:44:40.427Z,21.90
2022-08-22T19:47:28.167Z,21.90
2022-08-22T19:50:01.288Z,21.90
2022-08-22T19:52:50.243Z,21.80
2022-08-22T19:55:26.533Z,21.70
2022-08-22T19:58:02.389Z,21.50
2022-08-22T20:00:52.809Z,21.40
2022-08-22T20:03:32.395Z,21.20
2022-08-22T20:06:13.745Z,20.90
2022-08-22T20:09:01.607Z,20.60
2022-08-22T20:11:42.310Z,20.50
2022-08-22T20:14:12.853Z,20.50
2022-08-22T20:17:18.505Z,20.30
2022-08-22T20:22:46.544Z,20.10
2022-08-22T20:25:42.488Z,19.90
2022-08-22T20:28:14.713Z,19.70
2022-08-22T20:30:46.709Z,19.60
2022-08-22T20:33:20.582Z,19.50
2022-08-22T20:35:54.439Z,19.50
2022-08-22T20:38:27.740Z,19.40
2022-08-22T20:41:11.154Z,19.20
2022-08-22T20:43:43.916Z,19.10
2022-08-22T20:46:28.166Z,19.10
2022-08-22T20:48:57.326Z,18.90
2022-08-22T20:51:30.548Z,18.90
2022-08-22T20:54:00.789Z,18.90
2022-08-22T20:56:38.318Z,18.90
2022-08-22T20:59:22.941Z,18.80
2022-08-22T21:01:57.297Z,18.70
2022-08-22T21:04:28.569Z,18.70
2022-08-22T21:07:02.323Z,18.50
2022-08-22T21:09:53.251Z,18.30
2022-08-22T21:12:22.274Z,18.30
2022-08-22T21:14:50.234Z,17.90
2022-08-22T21:17:21.727Z,17.80
2022-08-22T21:19:49.688Z,17.70
2022-08-22T21:22:25.506Z,17.60
2022-08-22T21:24:56.250Z,17.50
2022-08-22T21:27:28.841Z,17.30
2022-08-22T21:29:58.572Z,17.30
2022-08-22T21:32:33.473Z,17.20
2022-08-22T21:35:02.823Z,17.10
2022-08-22T21:37:38.157Z,17.10
2022-08-22T21:40:15.150Z,17.10
2022-08-22T21:42:46.658Z,17.00
2022-08-22T21:45:28.111Z,17.00
2022-08-22T21:47:56.297Z,16.80
2022-08-22T21:50:37.870Z,16.80
2022-08-22T21:53:13.927Z,16.80
2022-08-22T21:55:44.341Z,16.70
2022-08-22T21:58:34.179Z,16.70
2022-08-22T22:01:29.047Z,16.70
2022-08-22T22:03:58.516Z,16.80
2022-08-22T22:06:27.274Z,16.90
2022-08-22T22:08:56.554Z,17.00
2022-08-22T22:11:24.576Z,17.00
2022-08-22T22:13:52.508Z,17.00
2022-08-22T22:16:25.593Z,16.90
2022-08-22T22:18:53.864Z,16.80
2022-08-22T22:21:21.844Z,16.70
2022-08-22T22:23:50.635Z,16.60
2022-08-22T22:26:20.970Z,16.50
2022-08-22T22:28:50.152Z,16.30
2022-08-22T22:31:19.255Z,16.20
2022-08-22T22:33:47.288Z,16.10
2022-08-22T22:36:18.871Z,16.30
2022-08-22T22:38:47.306Z,16.30
2022-08-22T22:41:15.422Z,16.20
2022-08-22T22:43:44.719Z,16.20
2022-08-22T22:46:12.648Z,16.10
2022-08-22T22:48:40.528Z,16.00
2022-08-22T22:51:10.406Z,15.90
2022-08-22T22:53:42.613Z,15.90
2022-08-22T22:56:16.152Z,15.80
2022-08-22T22:58:46.092Z,15.80
2022-08-22T23:01:17.786Z,15.70
2022-08-22T23:03:46.335Z,15.70
2022-08-22T23:06:16.614Z,15.70
2022-08-22T23:08:44.525Z,15.60
2022-08-22T23:11:13.726Z,15.60
2022-08-22T23:13:43.130Z,15.60
2022-08-22T23:16:14.935Z,15.60
2022-08-22T23:18:43.460Z,15.60
2022-08-22T23:21:13.012Z,15.50
2022-08-22T23:23:40.948Z,15.50
2022-08-22T23:26:09.196Z,15.40
2022-08-22T23:28:37.339Z,15.40
2022-08-22T23:31:14.909Z,15.40
2022-08-22T23:33:43.670Z,15.30
2022-08-22T23:36:13.800Z,15.30
2022-08-22T23:38:42.149Z,15.20
2022-08-22T23:41:11.795Z,15.20
2022-08-22T23:43:43.969Z,15.20
2022-08-22T23:46:13.818Z,15.10
2022-08-22T23:48:43.001Z,15.10
2022-08-22T23:51:12.362Z,15.00
2022-08-22T23:53:40.489Z,15.00
2022-08-22T23:56:19.799Z,15.00
2022-08-22T23:58:49.186Z,15.00
